createdAt,value
2017-06-16T00:01:31.669Z,100415
2017-06-16T00:03:59.906Z,100416
2017-06-16T00:06:28.082Z,100412
2017-06-16T00:08:56.242Z,100413
2017-06-16T00:11:24.475Z,100407
2017-06-16T00:13:52.670Z,100421
2017-06-16T00:16:20.858Z,100421
2017-06-16T00:18:49.010Z,100426
2017-06-16T00:21:17.187Z,100425
2017-06-16T00:23:45.429Z,100421
2017-06-16T00:26:13.592Z,100425
2017-06-16T00:28:41.762Z,100427
2017-06-16T00:31:09.961Z,100426
2017-06-16T00:33:38.125Z,100429
2017-06-16T00:36:06.277Z,100438
2017-06-16T00:38:34.475Z,100433
2017-06-16T00:41:02.678Z,100449
2017-06-16T00:43:30.837Z,100455
2017-06-16T00:45:59.007Z,100456
2017-06-16T00:48:27.202Z,100459
2017-06-16T00:50:55.377Z,100454
2017-06-16T00:53:23.537Z,100468
2017-06-16T00:55:51.717Z,100472
2017-06-16T00:58:19.879Z,100461
2017-06-16T01:00:48.043Z,100466
2017-06-16T01:03:16.233Z,100468
2017-06-16T01:05:44.394Z,100468
2017-06-16T01:08:12.551Z,100476
2017-06-16T01:10:40.876Z,100476
2017-06-16T01:13:09.247Z,100481
2017-06-16T01:15:37.407Z,100479
2017-06-16T01:18:05.577Z,100475
2017-06-16T01:20:33.753Z,100483
2017-06-16T01:23:01.911Z,100477
2017-06-16T01:25:30.063Z,100484
2017-06-16T01:27:58.258Z,100478
2017-06-16T01:30:26.415Z,100488
2017-06-16T01:32:54.587Z,100487
2017-06-16T01:35:22.754Z,100479
2017-06-16T01:37:50.942Z,100479
2017-06-16T01:40:19.125Z,100483
2017-06-16T01:42:47.311Z,100494
2017-06-16T01:45:15.454Z,100497
2017-06-16T01:47:43.578Z,100501
2017-06-16T01:50:11.761Z,100510
2017-06-16T01:52:39.921Z,100514
2017-06-16T01:55:08.090Z,100513
2017-06-16T01:57:36.267Z,100515
2017-06-16T02:00:04.463Z,100510
2017-06-16T02:02:32.611Z,100529
2017-06-16T02:05:00.802Z,100527
2017-06-16T02:07:29.002Z,100529
2017-06-16T02:09:57.171Z,100539
2017-06-16T02:12:25.342Z,100550
2017-06-16T02:14:53.535Z,100553
2017-06-16T02:17:21.736Z,100563
2017-06-16T02:19:49.890Z,100556
2017-06-16T02:22:18.062Z,100561
2017-06-16T02:24:46.243Z,100551
2017-06-16T02:27:14.398Z,100553
2017-06-16T02:29:42.585Z,100553
2017-06-16T02:32:10.771Z,100550
2017-06-16T02:34:38.934Z,100549
2017-06-16T02:37:07.104Z,100558
2017-06-16T02:39:35.438Z,100556
2017-06-16T02:42:03.610Z,100549
2017-06-16T02:44:31.829Z,100559
2017-06-16T02:47:00.054Z,100565
2017-06-16T02:49:28.201Z,100551
2017-06-16T02:51:56.374Z,100560
2017-06-16T02:54:24.556Z,100563
2017-06-16T02:56:52.702Z,100573
2017-06-16T02:59:20.851Z,100563
2017-06-16T03:01:49.049Z,100562
2017-06-16T03:04:17.285Z,100563
2017-06-16T03:06:45.439Z,100562
2017-06-16T03:09:25.566Z,100576
2017-06-16T03:11:53.728Z,100583
2017-06-16T03:14:21.923Z,100581
2017-06-16T03:16:50.069Z,100593
2017-06-16T03:19:18.279Z,100581
2017-06-16T03:21:51.404Z,100583
2017-06-16T03:24:25.314Z,100587
2017-06-16T03:26:53.510Z,100589
2017-06-16T03:29:21.722Z,100577
2017-06-16T03:31:49.906Z,100577
2017-06-16T03:34:18.071Z,100565
2017-06-16T03:36:47.031Z,100575
2017-06-16T03:39:15.193Z,100582
2017-06-16T03:41:43.358Z,100586
2017-06-16T03:44:11.549Z,100583
2017-06-16T03:46:39.705Z,100587
2017-06-16T03:49:07.885Z,100588
2017-06-16T03:51:36.062Z,100589
2017-06-16T03:54:04.282Z,100592
2017-06-16T03:56:33.202Z,100599
2017-06-16T03:59:01.378Z,100605
2017-06-16T04:01:29.586Z,100604
2017-06-16T04:03:57.737Z,100604
2017-06-16T04:06:25.886Z,100607
2017-06-16T04:08:54.115Z,100612
2017-06-16T04:11:22.269Z,100617
2017-06-16T04:13:50.439Z,100614
2017-06-16T04:16:18.610Z,100608
2017-06-16T04:18:46.759Z,100611
2017-06-16T04:21:14.958Z,100617
2017-06-16T04:23:43.132Z,100624
2017-06-16T04:26:11.328Z,100626
2017-06-16T04:28:39.634Z,100633
2017-06-16T04:31:07.800Z,100637
2017-06-16T04:33:35.950Z,100646
2017-06-16T04:36:04.127Z,100648
2017-06-16T04:38:32.270Z,100637
2017-06-16T04:41:00.496Z,100649
2017-06-16T04:43:28.637Z,100647
2017-06-16T04:45:56.804Z,100649
2017-06-16T04:48:24.980Z,100661
2017-06-16T04:50:53.117Z,100662
2017-06-16T04:53:21.306Z,100669
2017-06-16T04:55:49.489Z,100675
2017-06-16T04:58:17.685Z,100677
2017-06-16T05:00:45.855Z,100681
2017-06-16T05:03:14.106Z,100680
2017-06-16T05:05:42.312Z,100679
2017-06-16T05:08:10.469Z,100681
2017-06-16T05:10:38.627Z,100687
2017-06-16T05:13:06.814Z,100688
2017-06-16T05:15:34.954Z,100688
2017-06-16T05:18:03.131Z,100686
2017-06-16T05:20:31.338Z,100684
2017-06-16T05:23:05.108Z,100695
2017-06-16T05:25:33.285Z,100675
2017-06-16T05:28:01.446Z,100675
2017-06-16T05:30:29.683Z,100685
2017-06-16T05:32:57.910Z,100695
2017-06-16T05:35:26.071Z,100694
2017-06-16T05:37:54.237Z,100697
2017-06-16T05:40:22.457Z,100701
2017-06-16T05:42:50.610Z,100692
2017-06-16T05:45:18.782Z,100691
2017-06-16T05:47:46.970Z,100683
2017-06-16T05:50:15.141Z,100686
2017-06-16T05:52:43.506Z,100696
2017-06-16T05:55:11.686Z,100697
2017-06-16T05:57:39.843Z,100701
2017-06-16T06:00:08.013Z,100705
2017-06-16T06:02:36.213Z,100706
2017-06-16T06:05:04.357Z,100713
2017-06-16T06:07:32.527Z,100711
2017-06-16T06:10:00.719Z,100714
2017-06-16T06:12:28.880Z,100730
2017-06-16T06:14:57.035Z,100734
2017-06-16T06:17:25.241Z,100731
2017-06-16T06:19:53.397Z,100730
2017-06-16T06:22:21.589Z,100726
2017-06-16T06:24:49.851Z,100738
2017-06-16T06:27:18.026Z,100734
2017-06-16T06:29:46.218Z,100735
2017-06-16T06:32:14.384Z,100743
2017-06-16T06:34:42.550Z,100739
2017-06-16T06:37:10.823Z,100754
2017-06-16T06:39:39.000Z,100752
2017-06-16T06:42:07.190Z,100758
2017-06-16T06:44:35.358Z,100768
2017-06-16T06:47:03.541Z,100766
2017-06-16T06:49:31.719Z,100780
2017-06-16T06:51:59.885Z,100771
2017-06-16T06:54:28.081Z,100754
2017-06-16T06:56:56.311Z,100767
2017-06-16T06:59:24.471Z,100766
2017-06-16T07:01:52.694Z,100758
2017-06-16T07:04:20.878Z,100759
2017-06-16T07:06:49.038Z,100761
2017-06-16T07:09:17.248Z,100758
2017-06-16T07:11:45.361Z,100769
2017-06-16T07:14:13.522Z,100762
2017-06-16T07:16:41.697Z,100767
2017-06-16T07:19:09.893Z,100771
2017-06-16T07:21:38.046Z,100766
2017-06-16T07:24:06.198Z,100771
2017-06-16T07:26:34.425Z,100774
2017-06-16T07:29:02.593Z,100764
2017-06-16T07:31:30.781Z,100773
2017-06-16T07:33:58.933Z,100773
2017-06-16T07:36:27.142Z,100778
2017-06-16T07:38:55.323Z,100780
2017-06-16T07:41:23.504Z,100783
2017-06-16T07:43:51.707Z,100785
2017-06-16T07:46:19.895Z,100793
2017-06-16T07:48:48.101Z,100791
2017-06-16T07:51:16.291Z,100789
2017-06-16T07:53:44.448Z,100774
2017-06-16T07:56:12.601Z,100781
2017-06-16T07:58:40.782Z,100784
2017-06-16T08:01:08.957Z,100778
2017-06-16T08:03:37.126Z,100779
2017-06-16T08:06:05.318Z,100782
2017-06-16T08:08:33.492Z,100774
2017-06-16T08:11:01.699Z,100789
2017-06-16T08:13:29.883Z,100786
2017-06-16T08:15:58.226Z,100792
2017-06-16T08:18:26.380Z,100785
2017-06-16T08:21:00.122Z,100780
2017-06-16T08:23:28.277Z,100798
2017-06-16T08:25:56.449Z,100797
2017-06-16T08:28:24.641Z,100807
2017-06-16T08:30:52.827Z,100796
2017-06-16T08:33:21.025Z,100817
2017-06-16T08:35:49.322Z,100814
2017-06-16T08:38:17.485Z,100809
2017-06-16T08:40:45.662Z,100825
2017-06-16T08:43:13.880Z,100802
2017-06-16T08:45:42.034Z,100797
2017-06-16T08:48:10.262Z,100807
2017-06-16T08:50:38.434Z,100818
2017-06-16T08:53:06.615Z,100799
2017-06-16T08:55:34.817Z,100803
2017-06-16T08:58:02.976Z,100809
2017-06-16T09:00:31.157Z,100820
2017-06-16T09:02:59.506Z,100824
2017-06-16T09:05:27.675Z,100833
2017-06-16T09:07:55.827Z,100832
2017-06-16T09:10:24.002Z,100825
2017-06-16T09:12:52.213Z,100828
2017-06-16T09:15:20.408Z,100827
2017-06-16T09:17:48.556Z,100831
2017-06-16T09:20:16.774Z,100831
2017-06-16T09:22:44.926Z,100829
2017-06-16T09:25:13.079Z,100831
2017-06-16T09:27:41.277Z,100834
2017-06-16T09:30:09.430Z,100828
2017-06-16T09:32:37.585Z,100836
2017-06-16T09:35:05.759Z,100830
2017-06-16T09:37:33.929Z,100831
2017-06-16T09:40:02.129Z,100844
2017-06-16T09:42:31.064Z,100847
2017-06-16T09:44:59.205Z,100843
2017-06-16T09:47:27.403Z,100838
2017-06-16T09:49:55.581Z,100835
2017-06-16T09:52:23.738Z,100830
2017-06-16T11:21:30.233Z,100876
2017-06-16T11:23:58.466Z,100886
2017-06-16T11:26:26.646Z,100886
2017-06-16T11:28:54.842Z,100877
2017-06-16T11:31:23.018Z,100882
2017-06-16T11:33:51.938Z,100891
2017-06-16T11:36:20.163Z,100890
2017-06-16T11:38:48.334Z,100899
2017-06-16T11:41:16.502Z,100898
2017-06-16T11:43:44.757Z,100898
2017-06-16T11:46:12.938Z,100906
2017-06-16T11:48:41.109Z,100913
2017-06-16T11:51:09.253Z,100913
2017-06-16T11:53:37.458Z,100926
2017-06-16T11:56:05.602Z,100909
2017-06-16T11:58:33.923Z,100931
2017-06-16T12:01:02.187Z,100936
2017-06-16T12:03:30.356Z,100932
2017-06-16T12:05:58.519Z,100932
2017-06-16T12:08:26.686Z,100916
2017-06-16T12:10:54.862Z,100927
2017-06-16T12:13:23.053Z,100912
2017-06-16T12:15:51.243Z,100904
2017-06-16T12:18:19.422Z,100910
2017-06-16T12:20:47.605Z,100918
2017-06-16T12:23:15.789Z,100933
2017-06-16T12:25:43.978Z,100928
2017-06-16T12:28:12.148Z,100936
2017-06-16T12:30:40.356Z,100938
2017-06-16T12:33:08.551Z,100932
2017-06-16T12:35:36.724Z,100934
2017-06-16T12:38:04.897Z,100927
2017-06-16T12:40:33.148Z,100926
2017-06-16T12:43:01.366Z,100933
2017-06-16T12:45:29.514Z,100919
2017-06-16T12:47:57.790Z,100919
2017-06-16T12:50:26.011Z,100924
2017-06-16T12:52:54.380Z,100926
2017-06-16T12:55:22.614Z,100916
2017-06-16T12:57:50.793Z,100909
2017-06-16T13:00:18.991Z,100914
2017-06-16T13:02:47.172Z,100914
2017-06-16T13:05:15.346Z,100912
2017-06-16T13:07:43.546Z,100922
2017-06-16T13:10:11.709Z,100929
2017-06-16T13:12:39.861Z,100940
2017-06-16T13:15:08.054Z,100933
2017-06-16T13:17:36.207Z,100945
2017-06-16T13:20:04.372Z,100936
2017-06-16T13:22:32.554Z,100931
2017-06-16T13:25:00.720Z,100936
2017-06-16T13:27:28.881Z,100937
2017-06-16T13:29:57.073Z,100939
2017-06-16T13:32:25.416Z,100940
2017-06-16T13:34:53.683Z,100941
2017-06-16T13:37:21.876Z,100930
2017-06-16T13:39:50.195Z,100948
2017-06-16T13:42:18.530Z,100940
2017-06-16T13:44:46.702Z,100947
2017-06-16T13:47:14.958Z,100948
2017-06-16T13:49:43.172Z,100946
2017-06-16T13:52:12.114Z,100939
2017-06-16T13:54:40.423Z,100945
2017-06-16T13:57:08.778Z,100944
2017-06-16T13:59:36.927Z,100941
2017-06-16T14:02:05.104Z,100953
2017-06-16T14:04:33.338Z,100959
2017-06-16T14:07:01.522Z,100962
2017-06-16T14:09:29.682Z,100969
2017-06-16T14:11:57.964Z,100976
2017-06-16T14:14:26.118Z,100964
2017-06-16T14:16:54.282Z,100965
2017-06-16T14:19:22.502Z,100967
2017-06-16T14:21:50.650Z,100964
2017-06-16T14:24:18.887Z,100975
2017-06-16T14:26:47.087Z,100968
2017-06-16T14:29:15.277Z,100971
2017-06-16T14:31:43.558Z,100974
2017-06-16T14:34:11.707Z,100970
2017-06-16T14:36:39.940Z,100975
2017-06-16T14:39:08.082Z,100974
2017-06-16T14:41:36.292Z,100971
2017-06-16T14:44:04.475Z,100968
2017-06-16T14:46:32.711Z,100971
2017-06-16T14:49:01.030Z,100972
2017-06-16T14:51:29.208Z,100973
2017-06-16T14:53:57.393Z,100973
2017-06-16T14:56:25.586Z,100982
2017-06-16T14:58:53.822Z,100970
2017-06-16T15:01:22.000Z,100976
2017-06-16T15:03:50.271Z,100978
2017-06-16T15:06:18.557Z,100979
2017-06-16T15:08:46.798Z,100978
2017-06-16T15:11:14.963Z,100977
2017-06-16T15:13:43.193Z,100981
2017-06-16T15:16:11.371Z,100979
2017-06-16T15:18:39.584Z,100987
2017-06-16T15:21:13.322Z,100984
2017-06-16T15:23:45.271Z,100988
2017-06-16T15:26:13.476Z,100986
2017-06-16T15:28:41.714Z,100987
2017-06-16T15:31:10.032Z,100993
2017-06-16T15:33:38.204Z,100992
2017-06-16T15:36:07.177Z,100990
2017-06-16T15:38:35.366Z,100992
2017-06-16T15:41:03.522Z,100999
2017-06-16T15:43:31.803Z,100997
2017-06-16T15:45:59.970Z,101001
2017-06-16T15:48:28.133Z,101000
2017-06-16T15:50:56.351Z,100997
2017-06-16T15:53:24.548Z,101002
2017-06-16T15:55:52.745Z,100999
2017-06-16T15:58:20.928Z,100998
2017-06-16T16:00:49.089Z,101007
2017-06-16T16:03:17.272Z,101002
2017-06-16T16:05:45.523Z,101002
2017-06-16T16:08:13.683Z,101008
2017-06-16T16:10:41.891Z,101010
2017-06-16T16:13:10.141Z,101011
2017-06-16T16:15:38.359Z,101014
2017-06-16T16:18:06.725Z,101012
2017-06-16T16:20:34.877Z,101006
2017-06-16T16:23:03.031Z,101019
2017-06-16T16:25:31.269Z,101016
2017-06-16T16:27:59.450Z,101025
2017-06-16T16:30:27.667Z,101018
2017-06-16T16:32:55.828Z,101033
2017-06-16T16:35:24.037Z,101016
2017-06-16T16:37:52.210Z,101025
2017-06-16T16:40:20.383Z,101024
2017-06-16T16:42:48.575Z,101023
2017-06-16T16:45:16.758Z,101027
2017-06-16T16:47:44.944Z,101034
2017-06-16T16:50:13.121Z,101031
2017-06-16T16:52:41.310Z,101037
2017-06-16T16:55:09.513Z,101049
2017-06-16T16:57:37.732Z,101039
2017-06-16T17:00:06.672Z,101035
2017-06-16T17:02:34.838Z,101051
2017-06-16T17:05:03.088Z,101050
2017-06-16T17:07:31.277Z,101059
2017-06-16T17:09:59.425Z,101064
2017-06-16T17:12:27.642Z,101066
2017-06-16T17:14:55.813Z,101062
2017-06-16T17:17:23.967Z,101066
2017-06-16T17:19:52.289Z,101073
2017-06-16T17:22:20.484Z,101077
2017-06-16T17:24:48.661Z,101072
2017-06-16T17:27:16.853Z,101074
2017-06-16T17:29:45.086Z,101086
2017-06-16T17:32:13.242Z,101090
2017-06-16T17:34:41.443Z,101079
2017-06-16T17:37:09.698Z,101081
2017-06-16T17:39:37.880Z,101085
2017-06-16T17:42:06.081Z,101086
2017-06-16T17:44:35.063Z,101085
2017-06-16T17:47:04.180Z,101086
2017-06-16T17:49:32.307Z,101088
2017-06-16T17:52:00.777Z,101083
2017-06-16T17:54:29.075Z,101082
2017-06-16T17:56:57.289Z,101107
2017-06-16T17:59:25.579Z,101082
2017-06-16T18:01:53.794Z,101100
2017-06-16T18:04:22.004Z,101092
2017-06-16T18:06:50.195Z,101107
2017-06-16T18:09:18.616Z,101100
2017-06-16T18:11:46.846Z,101103
2017-06-16T18:14:15.080Z,101107
2017-06-16T18:16:43.553Z,101114
2017-06-16T18:19:12.660Z,101123
2017-06-16T18:21:41.703Z,101125
2017-06-16T18:24:10.707Z,101126
2017-06-16T18:26:40.024Z,101114
2017-06-16T18:29:08.478Z,101123
2017-06-16T18:31:36.962Z,101127
2017-06-16T18:34:05.905Z,101132
2017-06-16T18:36:34.134Z,101134
2017-06-16T18:39:03.066Z,101134
2017-06-16T18:41:31.545Z,101143
2017-06-16T18:44:00.792Z,101139
2017-06-16T18:46:29.406Z,101139
2017-06-16T18:48:59.415Z,101137
2017-06-16T18:51:28.198Z,101147
2017-06-16T18:53:57.580Z,101142
2017-06-16T18:56:27.601Z,101141
2017-06-16T18:58:56.013Z,101145
2017-06-16T19:01:25.317Z,101146
2017-06-16T19:03:54.685Z,101149
2017-06-16T19:06:23.404Z,101156
2017-06-16T19:08:53.195Z,101148
2017-06-16T19:11:21.418Z,101158
2017-06-16T19:13:50.641Z,101155
2017-06-16T19:16:19.273Z,101165
2017-06-16T19:18:47.504Z,101165
2017-06-16T19:21:15.661Z,101167
2017-06-16T19:23:43.873Z,101168
2017-06-16T19:26:12.133Z,101177
2017-06-16T19:28:40.319Z,101180
2017-06-16T19:31:08.465Z,101176
2017-06-16T19:33:36.701Z,101182
2017-06-16T19:36:04.870Z,101181
2017-06-16T19:38:33.040Z,101184
2017-06-16T19:41:01.259Z,101191
2017-06-16T19:43:29.381Z,101193
2017-06-16T19:45:57.547Z,101204
2017-06-16T19:48:25.849Z,101205
2017-06-16T19:50:54.882Z,101205
2017-06-16T19:53:23.027Z,101206
2017-06-16T19:55:51.210Z,101203
2017-06-16T19:58:19.373Z,101218
2017-06-16T20:00:47.554Z,101213
2017-06-16T20:03:15.710Z,101220
2017-06-16T20:05:43.918Z,101221
2017-06-16T20:08:12.043Z,101221
2017-06-16T20:10:40.986Z,101226
2017-06-16T20:13:09.330Z,101230
2017-06-16T20:15:37.526Z,101230
2017-06-16T20:18:05.677Z,101228
2017-06-16T20:20:33.895Z,101230
2017-06-16T20:23:02.059Z,101239
2017-06-16T20:25:30.532Z,101241
2017-06-16T20:27:58.892Z,101251
2017-06-16T20:30:27.068Z,101244
2017-06-16T20:32:55.257Z,101250
2017-06-16T20:35:23.434Z,101248
2017-06-16T20:37:51.612Z,101266
2017-06-16T20:40:19.823Z,101263
2017-06-16T20:42:48.088Z,101269
2017-06-16T20:45:16.268Z,101278
2017-06-16T20:47:44.576Z,101277
2017-06-16T20:50:12.751Z,101277
2017-06-16T20:52:40.956Z,101281
2017-06-16T20:55:09.126Z,101286
2017-06-16T20:57:37.278Z,101284
2017-06-16T21:00:05.475Z,101293
2017-06-16T21:02:33.643Z,101284
2017-06-16T21:05:01.810Z,101284
2017-06-16T21:07:30.059Z,101281
2017-06-16T21:09:58.246Z,101286
2017-06-16T21:12:26.409Z,101287
2017-06-16T21:14:54.582Z,101293
2017-06-16T21:17:22.791Z,101302
2017-06-16T21:19:50.990Z,101301
2017-06-16T21:22:24.787Z,101308
2017-06-16T21:24:52.978Z,101306
2017-06-16T21:27:21.136Z,101311
2017-06-16T21:29:49.307Z,101306
2017-06-16T21:32:17.488Z,101305
2017-06-16T21:34:45.647Z,101309
2017-06-16T21:37:13.889Z,101305
2017-06-16T21:39:42.053Z,101301
2017-06-16T21:42:10.227Z,101304
2017-06-16T21:44:38.411Z,101303
2017-06-16T21:47:06.575Z,101311
2017-06-16T21:49:34.798Z,101310
2017-06-16T21:52:03.010Z,101310
2017-06-16T21:54:31.194Z,101314
2017-06-16T21:56:59.395Z,101324
2017-06-16T21:59:27.605Z,101325
2017-06-16T22:01:55.790Z,101329
2017-06-16T22:04:24.055Z,101329
2017-06-16T22:06:52.290Z,101335
2017-06-16T22:09:20.483Z,101330
2017-06-16T22:11:48.703Z,101331
2017-06-16T22:14:16.905Z,101332
2017-06-16T22:16:45.126Z,101333
2017-06-16T22:19:13.306Z,101336
2017-06-16T22:21:42.322Z,101336
2017-06-16T22:24:10.486Z,101334
2017-06-16T22:26:38.673Z,101331
2017-06-16T22:29:06.858Z,101337
2017-06-16T22:31:35.032Z,101341
2017-06-16T22:34:03.186Z,101346
2017-06-16T22:36:31.446Z,101347
2017-06-16T22:39:00.374Z,101342
2017-06-16T22:41:28.537Z,101349
2017-06-16T22:43:56.718Z,101342
2017-06-16T22:46:24.995Z,101347
2017-06-16T22:48:53.181Z,101352
2017-06-16T22:51:21.385Z,101355
2017-06-16T22:53:49.594Z,101358
2017-06-16T22:56:17.760Z,101361
2017-06-16T22:58:46.725Z,101357
2017-06-16T23:01:14.952Z,101359
2017-06-16T23:03:43.144Z,101357
2017-06-16T23:06:11.350Z,101360
2017-06-16T23:08:39.490Z,101345
2017-06-16T23:11:07.646Z,101347
2017-06-16T23:13:36.010Z,101359
2017-06-16T23:16:04.259Z,101350
2017-06-16T23:18:32.431Z,101356
2017-06-16T23:21:01.425Z,101355
2017-06-16T23:23:29.597Z,101350
2017-06-16T23:25:57.766Z,101347
2017-06-16T23:28:25.967Z,101355
2017-06-16T23:30:54.138Z,101347
2017-06-16T23:33:22.310Z,101342
2017-06-16T23:35:50.537Z,101350
2017-06-16T23:38:18.702Z,101350
2017-06-16T23:40:46.833Z,101351
2017-06-16T23:43:15.043Z,101352
2017-06-16T23:45:43.217Z,101360
2017-06-16T23:48:11.427Z,101359
2017-06-16T23:50:39.626Z,101359
2017-06-16T23:53:07.867Z,101362
2017-06-16T23:55:36.014Z,101361
2017-06-16T23:58:04.206Z,101363
